createdAt,value
2019-01-23T00:02:58.545Z,31.23
2019-01-23T00:08:14.033Z,25.83
2019-01-23T00:13:29.489Z,26.60
2019-01-23T00:18:44.924Z,25.33
2019-01-23T00:24:00.601Z,25.47
2019-01-23T00:29:16.565Z,32.50
2019-01-23T00:34:32.579Z,22.43
2019-01-23T00:39:48.242Z,25.20
2019-01-23T00:45:04.046Z,25.60
2019-01-23T00:50:19.338Z,30.10
2019-01-23T00:55:35.168Z,26.80
2019-01-23T01:00:51.509Z,28.13
2019-01-23T01:06:07.038Z,30.13
2019-01-23T01:11:23.526Z,26.70
2019-01-23T01:16:38.717Z,28.13
2019-01-23T01:21:54.858Z,24.30
2019-01-23T01:27:10.272Z,24.07
2019-01-23T01:32:25.787Z,26.83
2019-01-23T01:37:41.504Z,27.13
2019-01-23T01:42:57.044Z,30.37
2019-01-23T01:48:12.516Z,25.67
2019-01-23T01:53:29.366Z,21.43
2019-01-23T01:58:45.395Z,30.77
2019-01-23T02:04:01.701Z,18.40
2019-01-23T02:09:16.949Z,23.23
2019-01-23T02:14:32.944Z,24.20
2019-01-23T02:19:48.400Z,24.20
2019-01-23T02:25:04.202Z,23.30
2019-01-23T02:30:19.511Z,25.27
2019-01-23T02:35:35.267Z,21.97
2019-01-23T02:40:50.514Z,19.00
2019-01-23T02:46:06.216Z,20.57
2019-01-23T02:51:09.653Z,22.00
2019-01-23T02:56:32.665Z,22.63
2019-01-23T03:01:55.446Z,16.37
2019-01-23T03:07:18.188Z,22.17
2019-01-23T03:12:40.952Z,20.47
2019-01-23T03:18:03.976Z,22.37
2019-01-23T03:29:00.628Z,16.63
2019-01-23T03:34:23.397Z,20.93
2019-01-23T03:39:39.281Z,21.43
2019-01-23T03:44:54.965Z,22.67
2019-01-23T03:50:10.906Z,19.80
2019-01-23T03:55:26.481Z,20.60
2019-01-23T04:00:41.717Z,15.57
2019-01-23T04:05:57.749Z,19.93
2019-01-23T04:11:13.473Z,22.03
2019-01-23T04:16:29.057Z,20.67
2019-01-23T04:21:44.928Z,25.07
2019-01-23T04:27:00.664Z,17.10
2019-01-23T04:32:16.934Z,26.43
2019-01-23T04:37:32.509Z,23.37
2019-01-23T04:42:48.363Z,23.13
2019-01-23T04:48:04.266Z,20.87
2019-01-23T04:53:19.896Z,27.30
2019-01-23T04:58:42.660Z,21.90
2019-01-23T05:04:05.694Z,29.42
2019-01-23T05:09:28.706Z,24.47
2019-01-23T05:14:51.469Z,23.23
2019-01-23T05:20:15.248Z,21.80
2019-01-23T05:25:38.264Z,24.63
2019-01-23T05:31:01.034Z,24.13
2019-01-23T05:36:24.041Z,25.97
2019-01-23T05:41:40.017Z,27.30
2019-01-23T05:46:55.550Z,28.13
2019-01-23T05:52:11.064Z,29.17
2019-01-23T05:57:26.669Z,28.33
2019-01-23T06:02:43.036Z,26.90
2019-01-23T06:07:46.704Z,26.83
2019-01-23T06:13:09.705Z,25.00
2019-01-23T06:18:32.472Z,28.30
2019-01-23T06:23:55.300Z,27.70
2019-01-23T06:29:18.076Z,27.17
2019-01-23T06:34:41.099Z,29.13
2019-01-23T06:39:57.170Z,24.20
2019-01-23T06:45:12.694Z,27.40
2019-01-23T06:50:28.250Z,29.83
2019-01-23T06:55:43.486Z,30.03
2019-01-23T07:01:00.080Z,26.77
2019-01-23T07:06:15.709Z,29.37
2019-01-23T07:11:31.181Z,28.03
2019-01-23T07:16:46.437Z,29.37
2019-01-23T07:22:02.148Z,27.50
2019-01-23T07:27:18.493Z,26.77
2019-01-23T07:32:34.017Z,29.23
2019-01-23T07:37:49.793Z,28.97
2019-01-23T07:43:05.576Z,28.10
2019-01-23T07:48:21.673Z,27.10
2019-01-23T07:53:37.173Z,28.17
2019-01-23T07:58:53.361Z,29.33
2019-01-23T08:04:09.045Z,29.03
2019-01-23T08:09:25.353Z,30.53
2019-01-23T08:14:42.037Z,30.90
2019-01-23T08:19:57.557Z,27.53
2019-01-23T08:25:13.150Z,28.10
2019-01-23T08:30:28.729Z,28.40
2019-01-23T08:35:44.753Z,29.30
2019-01-23T08:41:01.005Z,32.47
2019-01-23T08:46:17.230Z,31.17
2019-01-23T08:51:32.918Z,30.53
2019-01-23T08:56:48.460Z,31.23
2019-01-23T09:02:04.331Z,30.70
2019-01-23T09:07:19.958Z,28.60
2019-01-23T09:12:35.417Z,26.13
2019-01-23T09:17:51.109Z,27.83
2019-01-23T09:23:06.354Z,26.27
2019-01-23T09:28:21.668Z,28.83
2019-01-23T09:33:37.462Z,26.17
2019-01-23T09:44:27.461Z,32.90
2019-01-23T09:49:42.741Z,29.70
2019-01-23T09:54:57.961Z,28.03
2019-01-23T10:00:13.553Z,28.57
2019-01-23T10:05:29.682Z,30.77
2019-01-23T10:10:44.857Z,29.47
2019-01-23T10:16:00.165Z,32.23
2019-01-23T10:21:15.536Z,27.67
2019-01-23T10:26:31.401Z,27.87
2019-01-23T10:31:46.792Z,27.23
2019-01-23T10:37:02.364Z,25.90
2019-01-23T10:42:17.725Z,28.87
2019-01-23T10:47:33.452Z,32.03
2019-01-23T10:52:48.822Z,27.17
2019-01-23T10:58:04.669Z,28.13
2019-01-23T11:03:20.101Z,26.70
2019-01-23T11:08:36.314Z,30.27
2019-01-23T11:13:51.853Z,27.53
2019-01-23T11:19:08.082Z,26.33
2019-01-23T11:24:23.457Z,31.33
2019-01-23T11:29:39.258Z,30.07
2019-01-23T11:34:54.437Z,25.60
2019-01-23T11:40:10.607Z,28.57
2019-01-23T11:45:26.067Z,29.47
2019-01-23T11:50:41.630Z,28.30
2019-01-23T11:55:57.034Z,31.97
2019-01-23T12:01:12.309Z,28.57
2019-01-23T12:06:27.850Z,28.30
2019-01-23T12:11:43.599Z,23.50
2019-01-23T12:16:59.089Z,31.97
2019-01-23T12:22:14.613Z,26.37
2019-01-23T12:27:29.913Z,27.37
2019-01-23T12:32:45.758Z,26.73
2019-01-23T12:38:01.622Z,28.77
2019-01-23T12:43:17.020Z,25.73
2019-01-23T12:48:33.365Z,29.50
2019-01-23T12:53:48.586Z,28.10
2019-01-23T12:59:05.221Z,26.47
2019-01-23T13:04:21.170Z,29.37
2019-01-23T13:09:36.865Z,29.90
2019-01-23T13:14:52.461Z,31.07
2019-01-23T13:20:08.587Z,29.43
2019-01-23T13:25:24.474Z,30.73
2019-01-23T13:30:40.337Z,34.83
2019-01-23T13:35:56.701Z,33.13
2019-01-23T13:41:12.006Z,33.23
2019-01-23T13:46:27.540Z,39.43
2019-01-23T13:51:43.062Z,33.90
2019-01-23T13:57:02.686Z,30.73
2019-01-23T14:02:18.070Z,35.07
2019-01-23T14:07:33.576Z,33.07
2019-01-23T14:12:50.013Z,29.67
2019-01-23T14:18:05.359Z,33.63
2019-01-23T14:23:09.033Z,35.07
2019-01-23T14:28:31.796Z,31.80
2019-01-23T14:33:54.826Z,30.57
2019-01-23T14:39:10.793Z,31.83
2019-01-23T14:49:47.316Z,30.37
2019-01-23T14:55:02.753Z,30.40
2019-01-23T15:00:18.391Z,32.53
2019-01-23T15:05:33.913Z,28.10
2019-01-23T15:10:50.098Z,29.50
2019-01-23T15:16:05.413Z,32.23
2019-01-23T15:21:21.253Z,38.27
2019-01-23T15:26:36.877Z,30.27
2019-01-23T15:31:52.687Z,32.03
2019-01-23T15:37:08.014Z,31.63
2019-01-23T15:42:23.502Z,31.00
2019-01-23T15:47:38.998Z,29.17
2019-01-23T15:52:54.717Z,31.63
2019-01-23T15:58:10.113Z,33.73
2019-01-23T16:03:26.198Z,27.87
2019-01-23T16:08:41.705Z,30.07
2019-01-23T16:13:57.233Z,31.30
2019-01-23T16:19:12.742Z,31.73
2019-01-23T16:24:28.569Z,29.40
2019-01-23T16:29:44.491Z,30.53
2019-01-23T16:35:00.939Z,27.13
2019-01-23T16:40:16.173Z,32.90
2019-01-23T16:45:31.886Z,31.30
2019-01-23T16:50:47.357Z,29.17
2019-01-23T16:56:03.601Z,31.57
2019-01-23T17:01:18.866Z,35.37
2019-01-23T17:06:34.753Z,32.67
2019-01-23T17:11:50.292Z,31.63
2019-01-23T17:17:06.107Z,32.20
2019-01-23T17:22:24.532Z,30.13
2019-01-23T17:27:40.077Z,30.77
2019-01-23T17:32:56.461Z,30.83
2019-01-23T17:38:12.266Z,27.13
2019-01-23T17:43:28.618Z,29.33
2019-01-23T17:48:44.806Z,26.43
2019-01-23T17:54:00.743Z,31.13
2019-01-23T17:59:16.576Z,32.10
2019-01-23T18:04:32.185Z,30.03
2019-01-23T18:09:47.605Z,34.80
2019-01-23T18:15:03.536Z,32.00
2019-01-23T18:20:19.130Z,29.43
2019-01-23T18:25:34.868Z,30.63
2019-01-23T18:30:50.617Z,28.13
2019-01-23T18:36:32.722Z,29.47
2019-01-23T18:41:48.841Z,29.50
2019-01-23T18:47:04.386Z,27.97
2019-01-23T18:52:19.933Z,33.20
2019-01-23T18:57:36.153Z,30.83
2019-01-23T19:02:39.589Z,28.57
2019-01-23T19:08:02.421Z,28.17
2019-01-23T19:13:25.185Z,30.30
2019-01-23T19:18:47.954Z,28.47
2019-01-23T19:24:10.961Z,33.67
2019-01-23T19:29:33.717Z,26.43
2019-01-23T19:34:56.563Z,29.70
2019-01-23T19:40:14.442Z,32.63
2019-01-23T19:45:29.881Z,31.57
2019-01-23T19:50:45.852Z,30.63
2019-01-23T19:56:01.515Z,29.13
2019-01-23T20:01:17.190Z,30.13
2019-01-23T20:06:32.935Z,34.97
2019-01-23T20:11:49.059Z,29.67
2019-01-23T20:17:04.758Z,33.57
2019-01-23T20:22:20.638Z,31.33
2019-01-23T20:27:36.874Z,32.03
2019-01-23T20:32:55.107Z,31.03
2019-01-23T20:38:11.108Z,29.90
2019-01-23T20:43:27.305Z,33.97
2019-01-23T20:48:42.725Z,32.97
2019-01-23T20:53:58.670Z,29.83
2019-01-23T20:59:14.375Z,34.03
2019-01-23T21:04:29.553Z,31.00
2019-01-23T21:09:45.167Z,32.03
2019-01-23T21:15:01.511Z,32.90
2019-01-23T21:20:17.241Z,33.00
2019-01-23T21:25:32.785Z,30.83
2019-01-23T21:30:49.105Z,34.07
2019-01-23T21:36:04.697Z,32.07
2019-01-23T21:41:21.402Z,31.43
2019-01-23T21:46:37.505Z,37.40
2019-01-23T21:51:53.418Z,33.33
2019-01-23T21:57:09.343Z,30.80
2019-01-23T22:02:25.584Z,32.37
2019-01-23T22:07:41.564Z,34.90
2019-01-23T22:12:57.234Z,34.00
2019-01-23T22:18:00.672Z,35.17
2019-01-23T22:23:23.449Z,34.43
2019-01-23T22:28:47.325Z,34.67
2019-01-23T22:34:10.402Z,34.40
2019-01-23T22:39:26.035Z,35.03
2019-01-23T22:44:41.465Z,31.47
2019-01-23T22:49:57.377Z,37.53
2019-01-23T22:55:13.200Z,35.73
2019-01-23T23:00:30.645Z,32.97
2019-01-23T23:05:46.234Z,35.27
2019-01-23T23:11:01.678Z,33.63
2019-01-23T23:16:17.110Z,35.17
2019-01-23T23:21:32.297Z,35.13
2019-01-23T23:26:48.309Z,35.07
2019-01-23T23:32:03.907Z,35.87
2019-01-23T23:37:19.440Z,34.90
2019-01-23T23:42:35.028Z,33.77
2019-01-23T23:47:50.693Z,36.23
2019-01-23T23:53:06.385Z,33.27
2019-01-23T23:58:22.440Z,34.30
